sensor_id;sensor_type;location;lat;lon;timestamp;P1;durP1;ratioP1;P2;durP2;ratioP2
65533;SDS011;53640;55.838;37.184;2023-07-20T00:01:27;3.28;;;1.35;;
65533;SDS011;53640;55.838;37.184;2023-07-20T00:03:53;4.35;;;1.63;;
65533;SDS011;53640;55.838;37.184;2023-07-20T00:06:24;1.73;;;1.10;;
65533;SDS011;53640;55.838;37.184;2023-07-20T00:08:54;4.43;;;1.20;;
65533;SDS011;53640;55.838;37.184;2023-07-20T00:11:25;2.25;;;1.20;;
65533;SDS011;53640;55.838;37.184;2023-07-20T00:13:53;3.50;;;0.90;;
65533;SDS011;53640;55.838;37.184;2023-07-20T00:16:20;2.10;;;1.33;;
65533;SDS011;53640;55.838;37.184;2023-07-20T00:18:46;3.10;;;0.98;;
65533;SDS011;53640;55.838;37.184;2023-07-20T00:21:12;2.92;;;1.20;;
65533;SDS011;53640;55.838;37.184;2023-07-20T00:23:39;4.00;;;1.15;;
65533;SDS011;53640;55.838;37.184;2023-07-20T00:26:05;5.32;;;1.25;;
65533;SDS011;53640;55.838;37.184;2023-07-20T00:28:31;2.38;;;1.10;;
65533;SDS011;53640;55.838;37.184;2023-07-20T00:30:59;1.10;;;0.90;;
65533;SDS011;53640;55.838;37.184;2023-07-20T00:33:27;0.98;;;0.85;;
65533;SDS011;53640;55.838;37.184;2023-07-20T00:35:53;1.92;;;1.10;;
65533;SDS011;53640;55.838;37.184;2023-07-20T00:38:20;1.38;;;1.00;;
65533;SDS011;53640;55.838;37.184;2023-07-20T00:40:48;2.33;;;1.08;;
65533;SDS011;53640;55.838;37.184;2023-07-20T00:43:18;4.50;;;1.10;;
65533;SDS011;53640;55.838;37.184;2023-07-20T00:45:46;1.80;;;1.08;;
65533;SDS011;53640;55.838;37.184;2023-07-20T00:48:13;3.15;;;1.10;;
65533;SDS011;53640;55.838;37.184;2023-07-20T00:50:40;1.85;;;1.00;;
65533;SDS011;53640;55.838;37.184;2023-07-20T00:53:09;4.05;;;1.15;;
65533;SDS011;53640;55.838;37.184;2023-07-20T00:55:35;3.65;;;1.10;;
65533;SDS011;53640;55.838;37.184;2023-07-20T00:58:02;1.92;;;1.08;;
65533;SDS011;53640;55.838;37.184;2023-07-20T01:00:28;8.38;;;1.55;;
65533;SDS011;53640;55.838;37.184;2023-07-20T01:02:55;2.85;;;1.00;;
65533;SDS011;53640;55.838;37.184;2023-07-20T01:05:23;1.88;;;1.08;;
65533;SDS011;53640;55.838;37.184;2023-07-20T01:07:59;1.05;;;0.90;;
65533;SDS011;53640;55.838;37.184;2023-07-20T01:10:38;1.00;;;0.70;;
65533;SDS011;53640;55.838;37.184;2023-07-20T01:13:07;3.10;;;0.95;;
65533;SDS011;53640;55.838;37.184;2023-07-20T01:15:38;1.70;;;0.90;;
65533;SDS011;53640;55.838;37.184;2023-07-20T01:18:05;5.88;;;0.98;;
65533;SDS011;53640;55.838;37.184;2023-07-20T01:20:32;1.33;;;0.88;;
65533;SDS011;53640;55.838;37.184;2023-07-20T01:26:23;5.10;;;1.00;;
65533;SDS011;53640;55.838;37.184;2023-07-20T01:31:49;2.50;;;0.85;;
65533;SDS011;53640;55.838;37.184;2023-07-20T01:34:19;3.53;;;1.00;;
65533;SDS011;53640;55.838;37.184;2023-07-20T01:36:49;1.85;;;0.80;;
65533;SDS011;53640;55.838;37.184;2023-07-20T01:39:18;1.58;;;0.80;;
65533;SDS011;53640;55.838;37.184;2023-07-20T01:41:46;1.25;;;1.00;;
65533;SDS011;53640;55.838;37.184;2023-07-20T01:44:13;2.35;;;0.90;;
65533;SDS011;53640;55.838;37.184;2023-07-20T01:46:39;2.50;;;0.93;;
65533;SDS011;53640;55.838;37.184;2023-07-20T01:49:06;4.03;;;0.95;;
65533;SDS011;53640;55.838;37.184;2023-07-20T01:51:32;2.13;;;0.77;;
65533;SDS011;53640;55.838;37.184;2023-07-20T01:53:59;3.05;;;0.90;;
65533;SDS011;53640;55.838;37.184;2023-07-20T01:56:31;3.10;;;0.90;;
65533;SDS011;53640;55.838;37.184;2023-07-20T01:58:57;2.55;;;0.82;;
65533;SDS011;53640;55.838;37.184;2023-07-20T02:01:24;1.60;;;0.70;;
65533;SDS011;53640;55.838;37.184;2023-07-20T02:03:50;0.80;;;0.80;;
65533;SDS011;53640;55.838;37.184;2023-07-20T02:06:17;1.52;;;0.90;;
65533;SDS011;53640;55.838;37.184;2023-07-20T02:08:43;4.63;;;0.90;;
65533;SDS011;53640;55.838;37.184;2023-07-20T02:11:10;1.83;;;1.02;;
65533;SDS011;53640;55.838;37.184;2023-07-20T02:13:36;2.70;;;1.05;;
65533;SDS011;53640;55.838;37.184;2023-07-20T02:16:02;2.72;;;1.15;;
65533;SDS011;53640;55.838;37.184;2023-07-20T02:18:29;1.60;;;1.00;;
65533;SDS011;53640;55.838;37.184;2023-07-20T02:20:56;2.22;;;0.90;;
65533;SDS011;53640;55.838;37.184;2023-07-20T02:23:22;4.90;;;1.55;;
65533;SDS011;53640;55.838;37.184;2023-07-20T02:25:48;1.85;;;1.05;;
65533;SDS011;53640;55.838;37.184;2023-07-20T02:28:15;3.33;;;0.95;;
65533;SDS011;53640;55.838;37.184;2023-07-20T02:30:41;1.38;;;0.95;;
65533;SDS011;53640;55.838;37.184;2023-07-20T02:33:07;1.77;;;1.02;;
65533;SDS011;53640;55.838;37.184;2023-07-20T02:35:34;1.95;;;0.95;;
65533;SDS011;53640;55.838;37.184;2023-07-20T02:38:01;2.15;;;0.90;;
65533;SDS011;53640;55.838;37.184;2023-07-20T02:40:27;3.10;;;0.90;;
65533;SDS011;53640;55.838;37.184;2023-07-20T02:42:54;0.82;;;0.68;;
65533;SDS011;53640;55.838;37.184;2023-07-20T02:45:20;1.23;;;0.70;;
65533;SDS011;53640;55.838;37.184;2023-07-20T02:47:46;5.03;;;0.93;;
65533;SDS011;53640;55.838;37.184;2023-07-20T02:50:13;2.40;;;1.10;;
65533;SDS011;53640;55.838;37.184;2023-07-20T02:52:40;4.85;;;0.80;;
65533;SDS011;53640;55.838;37.184;2023-07-20T02:55:06;2.05;;;0.77;;
65533;SDS011;53640;55.838;37.184;2023-07-20T02:57:33;1.85;;;0.82;;
65533;SDS011;53640;55.838;37.184;2023-07-20T03:00:01;3.70;;;1.23;;
65533;SDS011;53640;55.838;37.184;2023-07-20T03:02:31;1.30;;;0.90;;
65533;SDS011;53640;55.838;37.184;2023-07-20T03:04:58;0.73;;;0.73;;
65533;SDS011;53640;55.838;37.184;2023-07-20T03:07:26;3.00;;;0.80;;
65533;SDS011;53640;55.838;37.184;2023-07-20T03:09:54;1.63;;;0.80;;
65533;SDS011;53640;55.838;37.184;2023-07-20T03:12:21;1.35;;;1.10;;
65533;SDS011;53640;55.838;37.184;2023-07-20T03:14:48;2.25;;;0.90;;
65533;SDS011;53640;55.838;37.184;2023-07-20T03:17:15;1.77;;;0.90;;
65533;SDS011;53640;55.838;37.184;2023-07-20T03:19:41;2.78;;;0.90;;
65533;SDS011;53640;55.838;37.184;2023-07-20T03:22:09;1.63;;;1.10;;
65533;SDS011;53640;55.838;37.184;2023-07-20T03:24:35;3.33;;;0.75;;
65533;SDS011;53640;55.838;37.184;2023-07-20T03:27:02;2.30;;;1.23;;
65533;SDS011;53640;55.838;37.184;2023-07-20T03:29:28;2.22;;;0.90;;
65533;SDS011;53640;55.838;37.184;2023-07-20T03:31:57;1.20;;;0.80;;
65533;SDS011;53640;55.838;37.184;2023-07-20T03:34:25;1.40;;;0.77;;
65533;SDS011;53640;55.838;37.184;2023-07-20T03:36:52;1.17;;;0.70;;
65533;SDS011;53640;55.838;37.184;2023-07-20T03:39:18;3.60;;;1.10;;
65533;SDS011;53640;55.838;37.184;2023-07-20T03:41:45;1.10;;;0.70;;
65533;SDS011;53640;55.838;37.184;2023-07-20T03:44:12;0.80;;;0.80;;
65533;SDS011;53640;55.838;37.184;2023-07-20T03:46:38;4.18;;;1.05;;
65533;SDS011;53640;55.838;37.184;2023-07-20T03:49:04;1.58;;;0.85;;
65533;SDS011;53640;55.838;37.184;2023-07-20T03:51:32;4.18;;;1.00;;
65533;SDS011;53640;55.838;37.184;2023-07-20T03:53:58;3.67;;;0.80;;
65533;SDS011;53640;55.838;37.184;2023-07-20T03:56:25;2.90;;;1.17;;
65533;SDS011;53640;55.838;37.184;2023-07-20T03:58:52;3.15;;;1.00;;
65533;SDS011;53640;55.838;37.184;2023-07-20T04:01:19;1.73;;;0.90;;
65533;SDS011;53640;55.838;37.184;2023-07-20T04:03:45;1.75;;;0.80;;
65533;SDS011;53640;55.838;37.184;2023-07-20T04:06:12;0.70;;;0.70;;
65533;SDS011;53640;55.838;37.184;2023-07-20T04:08:40;1.42;;;0.90;;
65533;SDS011;53640;55.838;37.184;2023-07-20T04:11:06;2.75;;;0.63;;
65533;SDS011;53640;55.838;37.184;2023-07-20T04:13:32;1.25;;;0.80;;
65533;SDS011;53640;55.838;37.184;2023-07-20T04:16:00;2.33;;;0.70;;
65533;SDS011;53640;55.838;37.184;2023-07-20T04:18:26;0.85;;;0.60;;
65533;SDS011;53640;55.838;37.184;2023-07-20T04:20:53;5.00;;;0.77;;
65533;SDS011;53640;55.838;37.184;2023-07-20T04:23:19;2.38;;;0.90;;
65533;SDS011;53640;55.838;37.184;2023-07-20T04:25:46;4.15;;;0.90;;
65533;SDS011;53640;55.838;37.184;2023-07-20T04:28:13;1.63;;;0.80;;
65533;SDS011;53640;55.838;37.184;2023-07-20T04:30:48;0.77;;;0.73;;
65533;SDS011;53640;55.838;37.184;2023-07-20T04:33:16;1.35;;;0.82;;
65533;SDS011;53640;55.838;37.184;2023-07-20T04:38:21;0.88;;;0.70;;
65533;SDS011;53640;55.838;37.184;2023-07-20T04:40:54;1.88;;;0.70;;
65533;SDS011;53640;55.838;37.184;2023-07-20T04:43:21;0.98;;;0.70;;
65533;SDS011;53640;55.838;37.184;2023-07-20T04:45:47;2.72;;;0.73;;
65533;SDS011;53640;55.838;37.184;2023-07-20T04:48:15;1.00;;;0.90;;
65533;SDS011;53640;55.838;37.184;2023-07-20T04:50:48;2.50;;;0.80;;
65533;SDS011;53640;55.838;37.184;2023-07-20T04:53:15;0.90;;;0.70;;
65533;SDS011;53640;55.838;37.184;2023-07-20T04:55:47;3.13;;;1.00;;
65533;SDS011;53640;55.838;37.184;2023-07-20T04:58:20;3.92;;;0.82;;
65533;SDS011;53640;55.838;37.184;2023-07-20T05:00:50;0.93;;;0.70;;
65533;SDS011;53640;55.838;37.184;2023-07-20T05:03:17;3.17;;;0.98;;
65533;SDS011;53640;55.838;37.184;2023-07-20T05:05:46;1.35;;;0.90;;
65533;SDS011;53640;55.838;37.184;2023-07-20T05:08:13;1.02;;;0.90;;
65533;SDS011;53640;55.838;37.184;2023-07-20T05:10:40;0.75;;;0.75;;
65533;SDS011;53640;55.838;37.184;2023-07-20T05:13:07;2.60;;;1.13;;
65533;SDS011;53640;55.838;37.184;2023-07-20T05:15:33;1.98;;;0.80;;
65533;SDS011;53640;55.838;37.184;2023-07-20T05:18:04;1.42;;;0.65;;
65533;SDS011;53640;55.838;37.184;2023-07-20T05:20:30;1.33;;;0.95;;
65533;SDS011;53640;55.838;37.184;2023-07-20T05:23:00;1.95;;;0.70;;
65533;SDS011;53640;55.838;37.184;2023-07-20T05:25:27;3.53;;;1.00;;
65533;SDS011;53640;55.838;37.184;2023-07-20T05:27:53;4.03;;;1.00;;
65533;SDS011;53640;55.838;37.184;2023-07-20T05:30:21;3.67;;;1.10;;
65533;SDS011;53640;55.838;37.184;2023-07-20T05:32:47;2.58;;;0.98;;
65533;SDS011;53640;55.838;37.184;2023-07-20T05:35:17;0.70;;;0.55;;
65533;SDS011;53640;55.838;37.184;2023-07-20T05:37:44;0.80;;;0.70;;
65533;SDS011;53640;55.838;37.184;2023-07-20T05:40:11;4.63;;;1.00;;
65533;SDS011;53640;55.838;37.184;2023-07-20T05:42:38;1.73;;;0.75;;
65533;SDS011;53640;55.838;37.184;2023-07-20T05:45:05;2.38;;;0.63;;
65533;SDS011;53640;55.838;37.184;2023-07-20T05:47:32;1.85;;;0.88;;
65533;SDS011;53640;55.838;37.184;2023-07-20T05:49:58;3.17;;;0.82;;
65533;SDS011;53640;55.838;37.184;2023-07-20T05:52:28;2.22;;;0.90;;
65533;SDS011;53640;55.838;37.184;2023-07-20T05:54:54;0.77;;;0.77;;
65533;SDS011;53640;55.838;37.184;2023-07-20T05:57:21;0.60;;;0.60;;
65533;SDS011;53640;55.838;37.184;2023-07-20T05:59:48;2.83;;;0.98;;
65533;SDS011;53640;55.838;37.184;2023-07-20T06:02:14;0.73;;;0.60;;
65533;SDS011;53640;55.838;37.184;2023-07-20T06:04:41;1.73;;;0.50;;
65533;SDS011;53640;55.838;37.184;2023-07-20T06:07:07;0.50;;;0.50;;
65533;SDS011;53640;55.838;37.184;2023-07-20T06:09:34;3.42;;;0.70;;
65533;SDS011;53640;55.838;37.184;2023-07-20T06:12:00;0.70;;;0.70;;
65533;SDS011;53640;55.838;37.184;2023-07-20T06:14:27;5.78;;;0.80;;
65533;SDS011;53640;55.838;37.184;2023-07-20T06:16:53;1.13;;;0.60;;
65533;SDS011;53640;55.838;37.184;2023-07-20T06:19:19;0.73;;;0.55;;
65533;SDS011;53640;55.838;37.184;2023-07-20T06:21:48;0.85;;;0.60;;
65533;SDS011;53640;55.838;37.184;2023-07-20T06:24:16;0.95;;;0.60;;
65533;SDS011;53640;55.838;37.184;2023-07-20T06:26:43;1.80;;;0.70;;
65533;SDS011;53640;55.838;37.184;2023-07-20T06:29:09;1.30;;;0.70;;
65533;SDS011;53640;55.838;37.184;2023-07-20T06:31:36;1.23;;;0.80;;
65533;SDS011;53640;55.838;37.184;2023-07-20T06:34:02;2.33;;;1.00;;
65533;SDS011;53640;55.838;37.184;2023-07-20T06:36:29;9.48;;;1.15;;
65533;SDS011;53640;55.838;37.184;2023-07-20T06:38:56;2.88;;;0.68;;
65533;SDS011;53640;55.838;37.184;2023-07-20T06:41:22;1.42;;;0.70;;
65533;SDS011;53640;55.838;37.184;2023-07-20T06:43:49;0.68;;;0.60;;
65533;SDS011;53640;55.838;37.184;2023-07-20T06:46:16;1.48;;;0.65;;
65533;SDS011;53640;55.838;37.184;2023-07-20T06:48:43;1.95;;;0.60;;
65533;SDS011;53640;55.838;37.184;2023-07-20T06:51:10;2.80;;;0.88;;
65533;SDS011;53640;55.838;37.184;2023-07-20T06:53:36;1.67;;;0.85;;
65533;SDS011;53640;55.838;37.184;2023-07-20T06:56:03;0.88;;;0.70;;
65533;SDS011;53640;55.838;37.184;2023-07-20T06:58:29;2.42;;;1.30;;
65533;SDS011;53640;55.838;37.184;2023-07-20T07:00:56;0.88;;;0.68;;
65533;SDS011;53640;55.838;37.184;2023-07-20T07:03:24;2.70;;;0.85;;
65533;SDS011;53640;55.838;37.184;2023-07-20T07:05:54;2.28;;;0.70;;
65533;SDS011;53640;55.838;37.184;2023-07-20T07:08:22;4.57;;;0.70;;
65533;SDS011;53640;55.838;37.184;2023-07-20T07:10:48;1.17;;;0.80;;
65533;SDS011;53640;55.838;37.184;2023-07-20T07:13:15;2.00;;;0.88;;
65533;SDS011;53640;55.838;37.184;2023-07-20T07:15:42;2.65;;;0.68;;
65533;SDS011;53640;55.838;37.184;2023-07-20T07:18:08;1.50;;;0.57;;
65533;SDS011;53640;55.838;37.184;2023-07-20T07:20:35;2.05;;;0.68;;
65533;SDS011;53640;55.838;37.184;2023-07-20T07:23:01;6.13;;;1.00;;
65533;SDS011;53640;55.838;37.184;2023-07-20T07:25:27;1.80;;;0.80;;
65533;SDS011;53640;55.838;37.184;2023-07-20T07:27:54;0.90;;;0.80;;
65533;SDS011;53640;55.838;37.184;2023-07-20T07:30:22;2.55;;;0.70;;
65533;SDS011;53640;55.838;37.184;2023-07-20T07:32:48;0.73;;;0.70;;
65533;SDS011;53640;55.838;37.184;2023-07-20T07:35:14;1.80;;;0.60;;
65533;SDS011;53640;55.838;37.184;2023-07-20T07:37:41;2.92;;;0.80;;
65533;SDS011;53640;55.838;37.184;2023-07-20T07:40:07;3.58;;;0.80;;
65533;SDS011;53640;55.838;37.184;2023-07-20T07:42:35;1.58;;;0.80;;
65533;SDS011;53640;55.838;37.184;2023-07-20T07:45:02;4.15;;;0.80;;
65533;SDS011;53640;55.838;37.184;2023-07-20T08:00:31;3.17;;;0.93;;
65533;SDS011;53640;55.838;37.184;2023-07-20T08:02:57;1.50;;;0.90;;
65533;SDS011;53640;55.838;37.184;2023-07-20T08:05:24;1.02;;;0.90;;
65533;SDS011;53640;55.838;37.184;2023-07-20T08:07:52;0.70;;;0.70;;
65533;SDS011;53640;55.838;37.184;2023-07-20T08:10:19;3.15;;;0.75;;
65533;SDS011;53640;55.838;37.184;2023-07-20T08:12:45;1.55;;;0.82;;
65533;SDS011;53640;55.838;37.184;2023-07-20T08:15:12;0.95;;;0.75;;
65533;SDS011;53640;55.838;37.184;2023-07-20T08:17:41;1.45;;;1.00;;
65533;SDS011;53640;55.838;37.184;2023-07-20T08:20:08;4.28;;;1.35;;
65533;SDS011;53640;55.838;37.184;2023-07-20T08:22:38;0.82;;;0.70;;
65533;SDS011;53640;55.838;37.184;2023-07-20T08:25:06;1.80;;;0.90;;
65533;SDS011;53640;55.838;37.184;2023-07-20T08:27:32;2.03;;;0.90;;
65533;SDS011;53640;55.838;37.184;2023-07-20T08:29:59;3.65;;;0.88;;
65533;SDS011;53640;55.838;37.184;2023-07-20T08:32:25;6.97;;;1.30;;
65533;SDS011;53640;55.838;37.184;2023-07-20T08:34:52;2.15;;;0.70;;
65533;SDS011;53640;55.838;37.184;2023-07-20T08:37:18;1.75;;;0.93;;
65533;SDS011;53640;55.838;37.184;2023-07-20T08:39:45;3.08;;;1.70;;
65533;SDS011;53640;55.838;37.184;2023-07-20T08:42:11;1.48;;;0.90;;
65533;SDS011;53640;55.838;37.184;2023-07-20T08:44:41;2.90;;;1.40;;
65533;SDS011;53640;55.838;37.184;2023-07-20T08:47:09;0.90;;;0.82;;
65533;SDS011;53640;55.838;37.184;2023-07-20T08:49:38;2.55;;;0.95;;
65533;SDS011;53640;55.838;37.184;2023-07-20T08:52:06;1.67;;;0.90;;
65533;SDS011;53640;55.838;37.184;2023-07-20T08:54:33;1.10;;;0.90;;
65533;SDS011;53640;55.838;37.184;2023-07-20T08:57:01;3.15;;;0.90;;
65533;SDS011;53640;55.838;37.184;2023-07-20T08:59:29;3.35;;;1.27;;
65533;SDS011;53640;55.838;37.184;2023-07-20T09:01:56;2.72;;;0.90;;
65533;SDS011;53640;55.838;37.184;2023-07-20T09:04:24;2.05;;;0.93;;
65533;SDS011;53640;55.838;37.184;2023-07-20T09:06:50;1.38;;;0.93;;
65533;SDS011;53640;55.838;37.184;2023-07-20T09:09:18;1.25;;;1.00;;
65533;SDS011;53640;55.838;37.184;2023-07-20T09:11:48;2.10;;;0.90;;
65533;SDS011;53640;55.838;37.184;2023-07-20T09:14:15;2.55;;;0.80;;
65533;SDS011;53640;55.838;37.184;2023-07-20T09:16:53;0.88;;;0.88;;
65533;SDS011;53640;55.838;37.184;2023-07-20T09:19:21;2.67;;;0.90;;
65533;SDS011;53640;55.838;37.184;2023-07-20T09:21:48;2.70;;;1.10;;
65533;SDS011;53640;55.838;37.184;2023-07-20T09:24:20;5.30;;;1.30;;
65533;SDS011;53640;55.838;37.184;2023-07-20T09:26:47;1.55;;;1.20;;
65533;SDS011;53640;55.838;37.184;2023-07-20T09:29:17;4.60;;;1.50;;
65533;SDS011;53640;55.838;37.184;2023-07-20T09:31:58;1.23;;;1.10;;
65533;SDS011;53640;55.838;37.184;2023-07-20T09:34:31;7.50;;;1.30;;
65533;SDS011;53640;55.838;37.184;2023-07-20T09:36:58;1.33;;;1.23;;
65533;SDS011;53640;55.838;37.184;2023-07-20T09:39:29;1.25;;;1.08;;
65533;SDS011;53640;55.838;37.184;2023-07-20T09:41:59;5.85;;;1.58;;
65533;SDS011;53640;55.838;37.184;2023-07-20T09:44:27;1.60;;;1.30;;
65533;SDS011;53640;55.838;37.184;2023-07-20T09:46:54;2.47;;;1.10;;
65533;SDS011;53640;55.838;37.184;2023-07-20T09:49:21;1.20;;;1.20;;
65533;SDS011;53640;55.838;37.184;2023-07-20T09:51:48;0.90;;;0.90;;
65533;SDS011;53640;55.838;37.184;2023-07-20T09:54:14;1.85;;;1.27;;
65533;SDS011;53640;55.838;37.184;2023-07-20T09:56:42;1.25;;;1.20;;
65533;SDS011;53640;55.838;37.184;2023-07-20T09:59:10;3.03;;;1.63;;
65533;SDS011;53640;55.838;37.184;2023-07-20T10:01:36;6.88;;;2.22;;
65533;SDS011;53640;55.838;37.184;2023-07-20T10:04:07;2.75;;;1.67;;
65533;SDS011;53640;55.838;37.184;2023-07-20T10:06:36;6.60;;;1.83;;
65533;SDS011;53640;55.838;37.184;2023-07-20T10:09:08;7.45;;;1.70;;
65533;SDS011;53640;55.838;37.184;2023-07-20T10:11:40;3.20;;;1.48;;
65533;SDS011;53640;55.838;37.184;2023-07-20T10:14:09;2.47;;;1.50;;
65533;SDS011;53640;55.838;37.184;2023-07-20T10:16:43;3.00;;;1.40;;
65533;SDS011;53640;55.838;37.184;2023-07-20T10:19:34;1.98;;;1.40;;
65533;SDS011;53640;55.838;37.184;2023-07-20T10:22:14;3.50;;;1.40;;
65533;SDS011;53640;55.838;37.184;2023-07-20T10:24:44;2.55;;;1.55;;
65533;SDS011;53640;55.838;37.184;2023-07-20T10:27:13;1.60;;;1.50;;
65533;SDS011;53640;55.838;37.184;2023-07-20T10:29:40;2.67;;;1.30;;
65533;SDS011;53640;55.838;37.184;2023-07-20T10:32:08;2.83;;;1.42;;
65533;SDS011;53640;55.838;37.184;2023-07-20T10:34:35;2.10;;;1.35;;
65533;SDS011;53640;55.838;37.184;2023-07-20T10:37:02;3.85;;;1.27;;
65533;SDS011;53640;55.838;37.184;2023-07-20T10:39:30;4.70;;;1.45;;
65533;SDS011;53640;55.838;37.184;2023-07-20T10:42:02;4.10;;;1.92;;
65533;SDS011;53640;55.838;37.184;2023-07-20T10:44:30;2.57;;;1.50;;
65533;SDS011;53640;55.838;37.184;2023-07-20T10:47:03;3.05;;;1.65;;
65533;SDS011;53640;55.838;37.184;2023-07-20T10:49:35;2.08;;;1.20;;
65533;SDS011;53640;55.838;37.184;2023-07-20T10:52:21;2.80;;;1.67;;
65533;SDS011;53640;55.838;37.184;2023-07-20T10:54:47;2.78;;;1.20;;
65533;SDS011;53640;55.838;37.184;2023-07-20T10:57:21;2.45;;;1.40;;
65533;SDS011;53640;55.838;37.184;2023-07-20T10:59:49;2.53;;;1.25;;
65533;SDS011;53640;55.838;37.184;2023-07-20T11:02:17;3.20;;;1.20;;
65533;SDS011;53640;55.838;37.184;2023-07-20T11:04:45;3.40;;;1.10;;
65533;SDS011;53640;55.838;37.184;2023-07-20T11:07:16;3.10;;;1.33;;
65533;SDS011;53640;55.838;37.184;2023-07-20T11:09:44;3.57;;;0.97;;
65533;SDS011;53640;55.838;37.184;2023-07-20T11:12:11;1.63;;;1.30;;
65533;SDS011;53640;55.838;37.184;2023-07-20T11:14:42;3.53;;;1.50;;
65533;SDS011;53640;55.838;37.184;2023-07-20T11:17:20;2.67;;;1.38;;
65533;SDS011;53640;55.838;37.184;2023-07-20T11:19:48;1.88;;;1.40;;
65533;SDS011;53640;55.838;37.184;2023-07-20T11:22:16;2.10;;;1.17;;
65533;SDS011;53640;55.838;37.184;2023-07-20T11:24:43;2.58;;;1.10;;
65533;SDS011;53640;55.838;37.184;2023-07-20T11:27:10;1.83;;;0.90;;
65533;SDS011;53640;55.838;37.184;2023-07-20T11:29:37;3.45;;;1.00;;
65533;SDS011;53640;55.838;37.184;2023-07-20T11:32:03;3.90;;;1.17;;
65533;SDS011;53640;55.838;37.184;2023-07-20T11:34:31;1.85;;;1.10;;
65533;SDS011;53640;55.838;37.184;2023-07-20T11:36:58;1.38;;;0.95;;
65533;SDS011;53640;55.838;37.184;2023-07-20T11:39:25;1.00;;;0.90;;
65533;SDS011;53640;55.838;37.184;2023-07-20T11:41:52;1.42;;;0.85;;
65533;SDS011;53640;55.838;37.184;2023-07-20T11:44:21;1.27;;;0.93;;
65533;SDS011;53640;55.838;37.184;2023-07-20T11:46:59;1.10;;;0.80;;
65533;SDS011;53640;55.838;37.184;2023-07-20T11:49:42;2.42;;;1.00;;
65533;SDS011;53640;55.838;37.184;2023-07-20T11:52:10;1.23;;;1.00;;
65533;SDS011;53640;55.838;37.184;2023-07-20T11:54:43;1.80;;;0.98;;
65533;SDS011;53640;55.838;37.184;2023-07-20T11:57:17;1.48;;;0.95;;
65533;SDS011;53640;55.838;37.184;2023-07-20T11:59:54;2.03;;;1.20;;
65533;SDS011;53640;55.838;37.184;2023-07-20T12:02:32;1.23;;;0.88;;
65533;SDS011;53640;55.838;37.184;2023-07-20T12:04:58;0.90;;;0.90;;
65533;SDS011;53640;55.838;37.184;2023-07-20T12:07:26;1.25;;;1.10;;
65533;SDS011;53640;55.838;37.184;2023-07-20T12:10:06;1.20;;;1.10;;
65533;SDS011;53640;55.838;37.184;2023-07-20T12:12:34;1.25;;;1.00;;
65533;SDS011;53640;55.838;37.184;2023-07-20T12:15:17;1.27;;;1.17;;
65533;SDS011;53640;55.838;37.184;2023-07-20T12:17:52;1.30;;;1.20;;
65533;SDS011;53640;55.838;37.184;2023-07-20T12:20:25;3.03;;;1.52;;
65533;SDS011;53640;55.838;37.184;2023-07-20T12:23:04;5.75;;;1.13;;
65533;SDS011;53640;55.838;37.184;2023-07-20T12:25:38;2.65;;;1.30;;
65533;SDS011;53640;55.838;37.184;2023-07-20T12:28:09;1.30;;;1.10;;
65533;SDS011;53640;55.838;37.184;2023-07-20T12:33:04;3.08;;;1.02;;
65533;SDS011;53640;55.838;37.184;2023-07-20T12:35:30;1.30;;;1.05;;
65533;SDS011;53640;55.838;37.184;2023-07-20T12:37:58;3.25;;;1.25;;
65533;SDS011;53640;55.838;37.184;2023-07-20T12:40:25;2.40;;;1.00;;
65533;SDS011;53640;55.838;37.184;2023-07-20T12:42:51;0.98;;;0.90;;
65533;SDS011;53640;55.838;37.184;2023-07-20T12:45:18;1.08;;;0.95;;
65533;SDS011;53640;55.838;37.184;2023-07-20T12:47:44;3.67;;;1.05;;
65533;SDS011;53640;55.838;37.184;2023-07-20T12:50:11;0.80;;;0.80;;
65533;SDS011;53640;55.838;37.184;2023-07-20T12:52:38;1.13;;;1.00;;
65533;SDS011;53640;55.838;37.184;2023-07-20T12:55:06;3.10;;;1.17;;
65533;SDS011;53640;55.838;37.184;2023-07-20T12:57:34;3.10;;;1.10;;
65533;SDS011;53640;55.838;37.184;2023-07-20T13:00:02;1.30;;;1.10;;
65533;SDS011;53640;55.838;37.184;2023-07-20T13:02:33;1.45;;;1.17;;
65533;SDS011;53640;55.838;37.184;2023-07-20T13:05:00;2.83;;;1.20;;
65533;SDS011;53640;55.838;37.184;2023-07-20T13:07:30;1.17;;;1.10;;
65533;SDS011;53640;55.838;37.184;2023-07-20T13:10:00;1.35;;;0.93;;
65533;SDS011;53640;55.838;37.184;2023-07-20T13:12:31;1.23;;;1.10;;
65533;SDS011;53640;55.838;37.184;2023-07-20T13:14:59;2.75;;;1.10;;
65533;SDS011;53640;55.838;37.184;2023-07-20T13:17:30;1.27;;;1.17;;
65533;SDS011;53640;55.838;37.184;2023-07-20T13:19:56;2.22;;;1.30;;
65533;SDS011;53640;55.838;37.184;2023-07-20T13:22:23;1.67;;;1.20;;
65533;SDS011;53640;55.838;37.184;2023-07-20T13:24:49;1.55;;;1.02;;
65533;SDS011;53640;55.838;37.184;2023-07-20T13:27:17;2.30;;;1.02;;
65533;SDS011;53640;55.838;37.184;2023-07-20T13:29:44;4.53;;;1.30;;
65533;SDS011;53640;55.838;37.184;2023-07-20T13:32:14;1.80;;;1.20;;
65533;SDS011;53640;55.838;37.184;2023-07-20T13:34:42;1.77;;;1.08;;
65533;SDS011;53640;55.838;37.184;2023-07-20T13:37:09;1.30;;;1.13;;
65533;SDS011;53640;55.838;37.184;2023-07-20T13:39:36;4.47;;;1.33;;
65533;SDS011;53640;55.838;37.184;2023-07-20T13:42:03;3.60;;;1.40;;
65533;SDS011;53640;55.838;37.184;2023-07-20T13:44:31;1.48;;;1.33;;
65533;SDS011;53640;55.838;37.184;2023-07-20T13:46:58;1.58;;;1.27;;
65533;SDS011;53640;55.838;37.184;2023-07-20T13:49:25;2.53;;;1.38;;
65533;SDS011;53640;55.838;37.184;2023-07-20T13:51:51;3.28;;;1.50;;
65533;SDS011;53640;55.838;37.184;2023-07-20T13:54:18;3.92;;;1.73;;
65533;SDS011;53640;55.838;37.184;2023-07-20T13:56:44;4.03;;;1.33;;
65533;SDS011;53640;55.838;37.184;2023-07-20T13:59:11;3.45;;;1.20;;
65533;SDS011;53640;55.838;37.184;2023-07-20T14:01:37;2.53;;;1.55;;
65533;SDS011;53640;55.838;37.184;2023-07-20T14:04:04;2.45;;;1.40;;
65533;SDS011;53640;55.838;37.184;2023-07-20T14:06:31;3.33;;;1.48;;
65533;SDS011;53640;55.838;37.184;2023-07-20T14:08:58;3.85;;;1.40;;
65533;SDS011;53640;55.838;37.184;2023-07-20T14:11:26;2.00;;;1.25;;
65533;SDS011;53640;55.838;37.184;2023-07-20T14:13:52;2.40;;;1.25;;
65533;SDS011;53640;55.838;37.184;2023-07-20T14:16:20;2.92;;;1.70;;
65533;SDS011;53640;55.838;37.184;2023-07-20T14:18:48;5.88;;;1.58;;
65533;SDS011;53640;55.838;37.184;2023-07-20T14:21:16;1.92;;;1.23;;
65533;SDS011;53640;55.838;37.184;2023-07-20T14:23:47;3.42;;;1.20;;
65533;SDS011;53640;55.838;37.184;2023-07-20T14:26:15;2.65;;;1.35;;
65533;SDS011;53640;55.838;37.184;2023-07-20T14:28:42;0.95;;;0.95;;
65533;SDS011;53640;55.838;37.184;2023-07-20T14:31:08;1.38;;;1.27;;
65533;SDS011;53640;55.838;37.184;2023-07-20T14:33:35;1.77;;;1.30;;
65533;SDS011;53640;55.838;37.184;2023-07-20T14:36:02;1.48;;;1.00;;
65533;SDS011;53640;55.838;37.184;2023-07-20T14:38:30;1.90;;;1.00;;
65533;SDS011;53640;55.838;37.184;2023-07-20T14:40:57;1.23;;;0.90;;
65533;SDS011;53640;55.838;37.184;2023-07-20T14:43:23;1.15;;;1.05;;
65533;SDS011;53640;55.838;37.184;2023-07-20T14:45:50;4.45;;;1.70;;
65533;SDS011;53640;55.838;37.184;2023-07-20T14:48:16;1.55;;;1.13;;
65533;SDS011;53640;55.838;37.184;2023-07-20T14:50:43;1.65;;;1.10;;
65533;SDS011;53640;55.838;37.184;2023-07-20T14:53:13;1.30;;;1.20;;
65533;SDS011;53640;55.838;37.184;2023-07-20T14:55:41;2.78;;;1.13;;
65533;SDS011;53640;55.838;37.184;2023-07-20T14:58:08;3.97;;;1.20;;
65533;SDS011;53640;55.838;37.184;2023-07-20T15:00:35;1.25;;;1.00;;
65533;SDS011;53640;55.838;37.184;2023-07-20T15:03:02;1.40;;;1.10;;